sensor_id;sensor_type;location;lat;lon;timestamp;temperature;humidity
1413;DHT22;701;52.526;13.408;2022-10-22T00:00:22;14.70;52.20
1413;DHT22;701;52.526;13.408;2022-10-22T00:02:48;14.70;52.30
1413;DHT22;701;52.526;13.408;2022-10-22T00:05:14;14.60;52.60
1413;DHT22;701;52.526;13.408;2022-10-22T00:07:40;14.60;52.60
1413;DHT22;701;52.526;13.408;2022-10-22T00:10:06;14.60;52.90
1413;DHT22;701;52.526;13.408;2022-10-22T00:12:33;14.60;53.50
1413;DHT22;701;52.526;13.408;2022-10-22T00:14:59;14.70;53.90
1413;DHT22;701;52.526;13.408;2022-10-22T00:17:24;14.70;54.00
1413;DHT22;701;52.526;13.408;2022-10-22T00:19:50;14.80;54.20
1413;DHT22;701;52.526;13.408;2022-10-22T00:22:16;14.80;54.20
1413;DHT22;701;52.526;13.408;2022-10-22T00:24:41;14.80;54.20
1413;DHT22;701;52.526;13.408;2022-10-22T00:27:13;14.90;54.50
1413;DHT22;701;52.526;13.408;2022-10-22T00:29:40;14.90;54.20
1413;DHT22;701;52.526;13.408;2022-10-22T00:35:21;15.00;54.30
1413;DHT22;701;52.526;13.408;2022-10-22T00:37:47;15.00;54.40
1413;DHT22;701;52.526;13.408;2022-10-22T00:40:12;15.10;54.30
1413;DHT22;701;52.526;13.408;2022-10-22T00:42:38;15.10;54.30
1413;DHT22;701;52.526;13.408;2022-10-22T00:50:08;15.10;54.20
1413;DHT22;701;52.526;13.408;2022-10-22T00:52:35;15.10;54.20
1413;DHT22;701;52.526;13.408;2022-10-22T00:55:01;15.10;54.30
1413;DHT22;701;52.526;13.408;2022-10-22T00:57:27;15.10;54.20
1413;DHT22;701;52.526;13.408;2022-10-22T00:59:53;15.10;54.20
1413;DHT22;701;52.526;13.408;2022-10-22T01:02:20;15.20;54.30
1413;DHT22;701;52.526;13.408;2022-10-22T01:04:45;15.20;54.40
1413;DHT22;701;52.526;13.408;2022-10-22T01:07:17;15.10;54.30
1413;DHT22;701;52.526;13.408;2022-10-22T01:10:10;15.10;54.40
1413;DHT22;701;52.526;13.408;2022-10-22T01:23:45;15.10;55.20
1413;DHT22;701;52.526;13.408;2022-10-22T01:29:14;15.20;55.40
1413;DHT22;701;52.526;13.408;2022-10-22T01:31:45;15.10;55.20
1413;DHT22;701;52.526;13.408;2022-10-22T01:34:15;15.10;55.10
1413;DHT22;701;52.526;13.408;2022-10-22T01:36:43;15.10;55.30
1413;DHT22;701;52.526;13.408;2022-10-22T01:39:10;15.10;55.30
1413;DHT22;701;52.526;13.408;2022-10-22T01:41:38;15.10;55.30
1413;DHT22;701;52.526;13.408;2022-10-22T01:44:04;15.10;55.20
1413;DHT22;701;52.526;13.408;2022-10-22T01:46:30;15.10;55.30
1413;DHT22;701;52.526;13.408;2022-10-22T01:49:15;15.10;55.30
1413;DHT22;701;52.526;13.408;2022-10-22T01:51:56;15.10;55.10
1413;DHT22;701;52.526;13.408;2022-10-22T01:57:18;15.10;54.80
1413;DHT22;701;52.526;13.408;2022-10-22T02:00:09;15.00;54.70
1413;DHT22;701;52.526;13.408;2022-10-22T02:02:56;15.00;54.70
1413;DHT22;701;52.526;13.408;2022-10-22T02:05:39;14.90;54.50
1413;DHT22;701;52.526;13.408;2022-10-22T02:08:09;14.90;54.70
1413;DHT22;701;52.526;13.408;2022-10-22T02:10:39;14.90;54.90
1413;DHT22;701;52.526;13.408;2022-10-22T02:13:10;14.90;54.90
1413;DHT22;701;52.526;13.408;2022-10-22T02:15:37;14.90;55.10
1413;DHT22;701;52.526;13.408;2022-10-22T02:18:05;14.90;55.70
1413;DHT22;701;52.526;13.408;2022-10-22T02:20:34;14.90;55.60
1413;DHT22;701;52.526;13.408;2022-10-22T02:23:02;14.90;55.60
1413;DHT22;701;52.526;13.408;2022-10-22T02:25:31;14.90;55.60
1413;DHT22;701;52.526;13.408;2022-10-22T02:30:30;14.90;55.60
1413;DHT22;701;52.526;13.408;2022-10-22T02:33:33;14.90;55.50
1413;DHT22;701;52.526;13.408;2022-10-22T02:36:01;14.90;55.50
1413;DHT22;701;52.526;13.408;2022-10-22T02:38:28;14.90;55.20
1413;DHT22;701;52.526;13.408;2022-10-22T02:40:55;14.90;55.00
1413;DHT22;701;52.526;13.408;2022-10-22T02:43:23;14.90;54.80
1413;DHT22;701;52.526;13.408;2022-10-22T02:45:49;14.80;54.70
1413;DHT22;701;52.526;13.408;2022-10-22T02:48:15;14.80;54.70
1413;DHT22;701;52.526;13.408;2022-10-22T02:50:41;14.70;54.60
1413;DHT22;701;52.526;13.408;2022-10-22T02:53:07;14.70;54.70
1413;DHT22;701;52.526;13.408;2022-10-22T02:55:32;14.60;54.70
1413;DHT22;701;52.526;13.408;2022-10-22T02:57:58;14.60;54.80
1413;DHT22;701;52.526;13.408;2022-10-22T03:00:24;14.60;55.10
1413;DHT22;701;52.526;13.408;2022-10-22T03:02:49;14.60;55.20
1413;DHT22;701;52.526;13.408;2022-10-22T03:05:15;14.50;55.20
1413;DHT22;701;52.526;13.408;2022-10-22T03:07:41;14.50;55.40
1413;DHT22;701;52.526;13.408;2022-10-22T03:10:07;14.50;55.70
1413;DHT22;701;52.526;13.408;2022-10-22T03:12:32;14.50;55.70
1413;DHT22;701;52.526;13.408;2022-10-22T03:14:58;14.50;56.10
1413;DHT22;701;52.526;13.408;2022-10-22T03:17:24;14.50;56.30
1413;DHT22;701;52.526;13.408;2022-10-22T03:19:49;14.50;56.60
1413;DHT22;701;52.526;13.408;2022-10-22T03:22:20;14.50;56.60
1413;DHT22;701;52.526;13.408;2022-10-22T03:24:49;14.50;56.70
1413;DHT22;701;52.526;13.408;2022-10-22T03:27:17;14.50;56.70
1413;DHT22;701;52.526;13.408;2022-10-22T03:29:44;14.60;56.80
1413;DHT22;701;52.526;13.408;2022-10-22T03:32:12;14.60;57.40
1413;DHT22;701;52.526;13.408;2022-10-22T03:34:37;14.60;56.80
1413;DHT22;701;52.526;13.408;2022-10-22T03:37:03;14.60;56.80
1413;DHT22;701;52.526;13.408;2022-10-22T03:39:31;14.60;56.80
1413;DHT22;701;52.526;13.408;2022-10-22T03:41:58;14.60;56.80
1413;DHT22;701;52.526;13.408;2022-10-22T03:44:24;14.70;56.80
1413;DHT22;701;52.526;13.408;2022-10-22T03:46:50;14.70;56.80
1413;DHT22;701;52.526;13.408;2022-10-22T03:49:16;14.70;56.80
1413;DHT22;701;52.526;13.408;2022-10-22T03:51:43;14.70;56.80
1413;DHT22;701;52.526;13.408;2022-10-22T03:54:08;14.70;56.80
1413;DHT22;701;52.526;13.408;2022-10-22T03:56:34;14.70;56.90
1413;DHT22;701;52.526;13.408;2022-10-22T03:59:00;14.80;56.90
1413;DHT22;701;52.526;13.408;2022-10-22T04:01:28;14.80;57.00
1413;DHT22;701;52.526;13.408;2022-10-22T04:03:54;14.80;56.90
1413;DHT22;701;52.526;13.408;2022-10-22T04:06:21;14.80;56.90
1413;DHT22;701;52.526;13.408;2022-10-22T04:08:46;14.80;56.70
1413;DHT22;701;52.526;13.408;2022-10-22T04:11:13;14.80;57.20
1413;DHT22;701;52.526;13.408;2022-10-22T04:13:39;14.80;56.60
1413;DHT22;701;52.526;13.408;2022-10-22T04:16:06;14.80;56.40
1413;DHT22;701;52.526;13.408;2022-10-22T04:18:32;14.90;56.50
1413;DHT22;701;52.526;13.408;2022-10-22T04:20:58;14.90;56.50
1413;DHT22;701;52.526;13.408;2022-10-22T04:23:24;14.80;56.20
1413;DHT22;701;52.526;13.408;2022-10-22T04:25:49;14.90;56.30
1413;DHT22;701;52.526;13.408;2022-10-22T04:28:21;14.90;56.20
1413;DHT22;701;52.526;13.408;2022-10-22T04:30:47;14.90;56.20
1413;DHT22;701;52.526;13.408;2022-10-22T04:33:12;14.90;56.20
1413;DHT22;701;52.526;13.408;2022-10-22T04:35:38;14.90;56.20
1413;DHT22;701;52.526;13.408;2022-10-22T04:38:04;14.90;56.30
1413;DHT22;701;52.526;13.408;2022-10-22T04:40:30;14.90;56.20
1413;DHT22;701;52.526;13.408;2022-10-22T04:42:56;14.90;56.20
1413;DHT22;701;52.526;13.408;2022-10-22T04:45:21;14.90;56.10
1413;DHT22;701;52.526;13.408;2022-10-22T04:47:47;14.80;56.00
1413;DHT22;701;52.526;13.408;2022-10-22T04:50:13;14.80;55.90
1413;DHT22;701;52.526;13.408;2022-10-22T04:52:39;14.90;56.00
1413;DHT22;701;52.526;13.408;2022-10-22T04:55:05;14.80;55.90
1413;DHT22;701;52.526;13.408;2022-10-22T04:57:31;14.80;55.80
1413;DHT22;701;52.526;13.408;2022-10-22T04:59:56;14.80;55.70
1413;DHT22;701;52.526;13.408;2022-10-22T05:02:22;14.80;55.70
1413;DHT22;701;52.526;13.408;2022-10-22T05:04:48;14.80;55.50
1413;DHT22;701;52.526;13.408;2022-10-22T05:07:14;14.80;55.50
1413;DHT22;701;52.526;13.408;2022-10-22T05:09:39;14.80;55.50
1413;DHT22;701;52.526;13.408;2022-10-22T05:12:05;14.70;55.30
1413;DHT22;701;52.526;13.408;2022-10-22T05:14:31;14.70;55.30
1413;DHT22;701;52.526;13.408;2022-10-22T05:16:57;14.70;55.40
1413;DHT22;701;52.526;13.408;2022-10-22T05:19:26;14.70;55.30
1413;DHT22;701;52.526;13.408;2022-10-22T05:21:53;14.60;55.30
1413;DHT22;701;52.526;13.408;2022-10-22T05:24:19;14.60;55.30
1413;DHT22;701;52.526;13.408;2022-10-22T05:26:44;14.60;55.20
1413;DHT22;701;52.526;13.408;2022-10-22T05:29:10;14.50;55.20
1413;DHT22;701;52.526;13.408;2022-10-22T05:31:36;14.50;55.20
1413;DHT22;701;52.526;13.408;2022-10-22T05:34:03;14.50;55.30
1413;DHT22;701;52.526;13.408;2022-10-22T05:36:29;14.50;55.30
1413;DHT22;701;52.526;13.408;2022-10-22T05:38:56;14.40;55.40
1413;DHT22;701;52.526;13.408;2022-10-22T05:41:23;14.40;55.40
1413;DHT22;701;52.526;13.408;2022-10-22T05:43:50;14.40;55.60
1413;DHT22;701;52.526;13.408;2022-10-22T05:46:18;14.40;55.80
1413;DHT22;701;52.526;13.408;2022-10-22T05:48:49;14.30;55.70
1413;DHT22;701;52.526;13.408;2022-10-22T05:51:15;14.30;55.80
1413;DHT22;701;52.526;13.408;2022-10-22T05:53:41;14.40;55.90
1413;DHT22;701;52.526;13.408;2022-10-22T05:56:13;14.30;55.90
1413;DHT22;701;52.526;13.408;2022-10-22T05:58:40;14.40;56.00
1413;DHT22;701;52.526;13.408;2022-10-22T06:01:12;14.30;55.80
1413;DHT22;701;52.526;13.408;2022-10-22T06:03:38;14.30;55.80
1413;DHT22;701;52.526;13.408;2022-10-22T06:06:18;14.30;55.80
1413;DHT22;701;52.526;13.408;2022-10-22T06:08:49;14.30;55.70
1413;DHT22;701;52.526;13.408;2022-10-22T06:11:16;14.30;55.80
1413;DHT22;701;52.526;13.408;2022-10-22T06:13:43;14.30;55.70
1413;DHT22;701;52.526;13.408;2022-10-22T06:16:09;14.30;55.60
1413;DHT22;701;52.526;13.408;2022-10-22T06:18:35;14.30;55.70
1413;DHT22;701;52.526;13.408;2022-10-22T06:21:09;14.20;55.50
1413;DHT22;701;52.526;13.408;2022-10-22T06:23:36;14.20;55.60
1413;DHT22;701;52.526;13.408;2022-10-22T06:26:03;14.20;55.60
1413;DHT22;701;52.526;13.408;2022-10-22T06:28:28;14.20;55.80
1413;DHT22;701;52.526;13.408;2022-10-22T06:30:57;14.20;56.00
1413;DHT22;701;52.526;13.408;2022-10-22T06:33:23;14.20;56.50
1413;DHT22;701;52.526;13.408;2022-10-22T06:35:52;14.30;56.50
1413;DHT22;701;52.526;13.408;2022-10-22T06:38:18;14.40;56.60
1413;DHT22;701;52.526;13.408;2022-10-22T06:40:44;14.50;56.80
1413;DHT22;701;52.526;13.408;2022-10-22T06:43:11;14.50;57.00
1413;DHT22;701;52.526;13.408;2022-10-22T06:45:38;14.60;56.80
1413;DHT22;701;52.526;13.408;2022-10-22T06:48:05;14.70;56.80
1413;DHT22;701;52.526;13.408;2022-10-22T06:50:33;14.80;56.90
1413;DHT22;701;52.526;13.408;2022-10-22T06:53:00;14.90;56.70
1413;DHT22;701;52.526;13.408;2022-10-22T06:55:26;15.00;56.60
1413;DHT22;701;52.526;13.408;2022-10-22T06:57:54;15.00;56.40
1413;DHT22;701;52.526;13.408;2022-10-22T07:00:20;15.10;56.10
1413;DHT22;701;52.526;13.408;2022-10-22T07:02:51;15.10;55.90
1413;DHT22;701;52.526;13.408;2022-10-22T07:05:18;15.20;55.60
1413;DHT22;701;52.526;13.408;2022-10-22T07:07:45;15.30;55.30
1413;DHT22;701;52.526;13.408;2022-10-22T07:10:11;15.30;55.20
1413;DHT22;701;52.526;13.408;2022-10-22T07:12:38;15.40;54.90
1413;DHT22;701;52.526;13.408;2022-10-22T07:15:05;15.40;54.60
1413;DHT22;701;52.526;13.408;2022-10-22T07:17:31;15.50;54.40
1413;DHT22;701;52.526;13.408;2022-10-22T07:19:58;15.50;53.40
1413;DHT22;701;52.526;13.408;2022-10-22T07:22:23;15.50;53.40
1413;DHT22;701;52.526;13.408;2022-10-22T07:24:49;15.60;53.50
1413;DHT22;701;52.526;13.408;2022-10-22T07:27:15;15.60;53.40
1413;DHT22;701;52.526;13.408;2022-10-22T07:29:40;15.70;53.00
1413;DHT22;701;52.526;13.408;2022-10-22T07:32:06;15.70;52.80
1413;DHT22;701;52.526;13.408;2022-10-22T07:34:31;15.80;52.50
1413;DHT22;701;52.526;13.408;2022-10-22T07:36:57;15.80;52.20
1413;DHT22;701;52.526;13.408;2022-10-22T07:39:23;15.90;52.10
1413;DHT22;701;52.526;13.408;2022-10-22T07:41:50;16.00;51.80
1413;DHT22;701;52.526;13.408;2022-10-22T07:44:16;16.10;51.60
1413;DHT22;701;52.526;13.408;2022-10-22T07:46:42;16.30;51.20
1413;DHT22;701;52.526;13.408;2022-10-22T07:49:07;16.40;50.70
1413;DHT22;701;52.526;13.408;2022-10-22T07:51:33;16.50;50.00
1413;DHT22;701;52.526;13.408;2022-10-22T07:53:59;16.60;49.50
1413;DHT22;701;52.526;13.408;2022-10-22T07:56:25;16.70;48.60
1413;DHT22;701;52.526;13.408;2022-10-22T07:58:54;16.90;47.80
1413;DHT22;701;52.526;13.408;2022-10-22T08:01:19;16.90;47.20
1413;DHT22;701;52.526;13.408;2022-10-22T08:03:45;17.00;46.10
1413;DHT22;701;52.526;13.408;2022-10-22T08:06:14;17.10;46.20
1413;DHT22;701;52.526;13.408;2022-10-22T08:08:40;17.10;45.10
1413;DHT22;701;52.526;13.408;2022-10-22T08:11:06;17.10;45.10
1413;DHT22;701;52.526;13.408;2022-10-22T08:13:32;17.20;44.50
1413;DHT22;701;52.526;13.408;2022-10-22T08:15:59;17.20;43.50
1413;DHT22;701;52.526;13.408;2022-10-22T08:18:25;17.20;43.70
1413;DHT22;701;52.526;13.408;2022-10-22T08:20:51;17.20;43.70
1413;DHT22;701;52.526;13.408;2022-10-22T08:23:17;17.20;43.40
1413;DHT22;701;52.526;13.408;2022-10-22T08:25:43;17.30;42.90
1413;DHT22;701;52.526;13.408;2022-10-22T08:28:09;17.30;42.60
1413;DHT22;701;52.526;13.408;2022-10-22T08:30:35;17.30;42.30
1413;DHT22;701;52.526;13.408;2022-10-22T08:33:04;17.40;42.80
1413;DHT22;701;52.526;13.408;2022-10-22T08:35:30;17.40;42.10
1413;DHT22;701;52.526;13.408;2022-10-22T08:37:56;17.40;41.90
1413;DHT22;701;52.526;13.408;2022-10-22T08:40:30;17.40;41.40
1413;DHT22;701;52.526;13.408;2022-10-22T08:43:05;17.40;40.80
1413;DHT22;701;52.526;13.408;2022-10-22T08:46:09;17.50;40.90
1413;DHT22;701;52.526;13.408;2022-10-22T08:48:42;17.50;40.40
1413;DHT22;701;52.526;13.408;2022-10-22T08:51:16;17.50;41.00
1413;DHT22;701;52.526;13.408;2022-10-22T08:54:04;17.50;40.20
1413;DHT22;701;52.526;13.408;2022-10-22T08:56:34;17.50;39.70
1413;DHT22;701;52.526;13.408;2022-10-22T08:59:20;17.60;40.00
1413;DHT22;701;52.526;13.408;2022-10-22T09:01:50;17.60;39.50
1413;DHT22;701;52.526;13.408;2022-10-22T09:04:22;17.60;39.60
1413;DHT22;701;52.526;13.408;2022-10-22T09:06:52;17.70;39.30
1413;DHT22;701;52.526;13.408;2022-10-22T09:09:19;17.70;39.20
1413;DHT22;701;52.526;13.408;2022-10-22T09:11:48;17.70;39.00
1413;DHT22;701;52.526;13.408;2022-10-22T09:14:22;17.80;38.70
1413;DHT22;701;52.526;13.408;2022-10-22T09:22:34;18.00;38.20
1413;DHT22;701;52.526;13.408;2022-10-22T09:27:37;18.10;37.60
1413;DHT22;701;52.526;13.408;2022-10-22T09:30:03;18.20;37.60
1413;DHT22;701;52.526;13.408;2022-10-22T09:32:29;18.30;37.40
1413;DHT22;701;52.526;13.408;2022-10-22T09:34:56;18.40;36.90
1413;DHT22;701;52.526;13.408;2022-10-22T09:37:27;18.50;36.70
1413;DHT22;701;52.526;13.408;2022-10-22T09:39:55;18.60;35.90
1413;DHT22;701;52.526;13.408;2022-10-22T09:42:21;18.70;35.70
1413;DHT22;701;52.526;13.408;2022-10-22T09:44:55;18.70;35.30
1413;DHT22;701;52.526;13.408;2022-10-22T09:47:37;18.80;34.60
1413;DHT22;701;52.526;13.408;2022-10-22T09:52:38;19.10;34.50
1413;DHT22;701;52.526;13.408;2022-10-22T09:55:16;19.20;33.90
1413;DHT22;701;52.526;13.408;2022-10-22T09:57:42;19.30;32.40
1413;DHT22;701;52.526;13.408;2022-10-22T10:00:10;19.40;32.90
1413;DHT22;701;52.526;13.408;2022-10-22T10:02:39;19.50;32.50
1413;DHT22;701;52.526;13.408;2022-10-22T10:05:07;19.50;31.90
1413;DHT22;701;52.526;13.408;2022-10-22T10:07:34;19.50;31.60
1413;DHT22;701;52.526;13.408;2022-10-22T10:10:01;19.50;31.00
1413;DHT22;701;52.526;13.408;2022-10-22T10:12:53;19.50;31.10
1413;DHT22;701;52.526;13.408;2022-10-22T10:15:49;19.40;30.30
1413;DHT22;701;52.526;13.408;2022-10-22T10:37:45;19.20;30.60
1413;DHT22;701;52.526;13.408;2022-10-22T10:43:09;19.30;30.70
1413;DHT22;701;52.526;13.408;2022-10-22T10:48:38;19.40;30.30
1413;DHT22;701;52.526;13.408;2022-10-22T10:51:30;19.40;30.30
1413;DHT22;701;52.526;13.408;2022-10-22T10:54:24;19.40;30.30
1413;DHT22;701;52.526;13.408;2022-10-22T10:56:56;19.30;30.20
1413;DHT22;701;52.526;13.408;2022-10-22T11:08:16;19.80;30.70
1413;DHT22;701;52.526;13.408;2022-10-22T11:16:15;20.60;28.40
1413;DHT22;701;52.526;13.408;2022-10-22T11:21:36;21.00;27.80
1413;DHT22;701;52.526;13.408;2022-10-22T11:27:00;21.10;26.70
1413;DHT22;701;52.526;13.408;2022-10-22T11:29:38;21.10;26.10
1413;DHT22;701;52.526;13.408;2022-10-22T11:32:14;21.00;26.20
1413;DHT22;701;52.526;13.408;2022-10-22T11:34:47;20.80;26.10
1413;DHT22;701;52.526;13.408;2022-10-22T11:37:13;20.70;26.80
1413;DHT22;701;52.526;13.408;2022-10-22T11:39:46;20.60;27.00
1413;DHT22;701;52.526;13.408;2022-10-22T11:42:37;20.50;27.00
1413;DHT22;701;52.526;13.408;2022-10-22T11:45:22;20.40;27.10
1413;DHT22;701;52.526;13.408;2022-10-22T11:47:51;20.30;27.20
1413;DHT22;701;52.526;13.408;2022-10-22T12:03:40;19.70;28.70
1413;DHT22;701;52.526;13.408;2022-10-22T12:16:42;19.50;29.30
1413;DHT22;701;52.526;13.408;2022-10-22T12:19:41;19.40;29.30
1413;DHT22;701;52.526;13.408;2022-10-22T12:24:53;19.40;30.10
1413;DHT22;701;52.526;13.408;2022-10-22T12:27:26;19.30;29.80
1413;DHT22;701;52.526;13.408;2022-10-22T12:29:54;19.30;29.90
1413;DHT22;701;52.526;13.408;2022-10-22T12:32:20;19.30;30.00
1413;DHT22;701;52.526;13.408;2022-10-22T12:34:49;19.20;30.10
1413;DHT22;701;52.526;13.408;2022-10-22T12:37:16;19.20;30.10
1413;DHT22;701;52.526;13.408;2022-10-22T12:39:43;19.20;30.10
1413;DHT22;701;52.526;13.408;2022-10-22T12:42:13;19.10;30.10
1413;DHT22;701;52.526;13.408;2022-10-22T12:44:40;19.20;30.10
1413;DHT22;701;52.526;13.408;2022-10-22T12:47:10;19.20;30.10
1413;DHT22;701;52.526;13.408;2022-10-22T12:49:40;19.20;30.10
1413;DHT22;701;52.526;13.408;2022-10-22T12:52:13;19.30;30.20
1413;DHT22;701;52.526;13.408;2022-10-22T12:54:40;19.40;30.30
1413;DHT22;701;52.526;13.408;2022-10-22T12:57:12;19.50;30.00
1413;DHT22;701;52.526;13.408;2022-10-22T12:59:40;19.60;29.70
1413;DHT22;701;52.526;13.408;2022-10-22T13:02:22;19.60;29.20
1413;DHT22;701;52.526;13.408;2022-10-22T13:08:08;19.70;28.60
1413;DHT22;701;52.526;13.408;2022-10-22T13:10:39;19.70;28.40
1413;DHT22;701;52.526;13.408;2022-10-22T13:13:06;19.80;28.60
1413;DHT22;701;52.526;13.408;2022-10-22T13:15:51;19.80;28.30
1413;DHT22;701;52.526;13.408;2022-10-22T13:18:20;19.90;28.10
1413;DHT22;701;52.526;13.408;2022-10-22T13:20:55;19.90;27.50
1413;DHT22;701;52.526;13.408;2022-10-22T13:23:25;20.00;27.20
1413;DHT22;701;52.526;13.408;2022-10-22T13:26:03;20.00;27.20
1413;DHT22;701;52.526;13.408;2022-10-22T13:28:33;20.10;27.30
1413;DHT22;701;52.526;13.408;2022-10-22T13:31:01;20.10;27.30
1413;DHT22;701;52.526;13.408;2022-10-22T13:33:43;20.10;27.00
1413;DHT22;701;52.526;13.408;2022-10-22T13:36:14;20.10;26.70
1413;DHT22;701;52.526;13.408;2022-10-22T13:38:41;20.10;26.30
1413;DHT22;701;52.526;13.408;2022-10-22T13:41:28;20.10;26.30
1413;DHT22;701;52.526;13.408;2022-10-22T13:43:55;20.10;25.90
1413;DHT22;701;52.526;13.408;2022-10-22T13:46:21;20.10;26.10
1413;DHT22;701;52.526;13.408;2022-10-22T13:48:50;20.10;26.00
1413;DHT22;701;52.526;13.408;2022-10-22T13:51:22;20.10;25.90
1413;DHT22;701;52.526;13.408;2022-10-22T13:53:50;20.10;25.60
1413;DHT22;701;52.526;13.408;2022-10-22T13:56:19;20.00;25.70
1413;DHT22;701;52.526;13.408;2022-10-22T13:58:46;20.00;25.70
1413;DHT22;701;52.526;13.408;2022-10-22T14:01:26;20.00;25.80
1413;DHT22;701;52.526;13.408;2022-10-22T14:03:54;20.00;25.60
1413;DHT22;701;52.526;13.408;2022-10-22T14:06:23;20.00;25.80
1413;DHT22;701;52.526;13.408;2022-10-22T14:08:56;19.90;25.70
1413;DHT22;701;52.526;13.408;2022-10-22T14:11:23;19.90;25.70
1413;DHT22;701;52.526;13.408;2022-10-22T14:13:51;19.90;25.70
1413;DHT22;701;52.526;13.408;2022-10-22T14:16:24;19.80;25.60
1413;DHT22;701;52.526;13.408;2022-10-22T14:18:50;19.80;25.60
1413;DHT22;701;52.526;13.408;2022-10-22T14:21:16;19.70;25.60
1413;DHT22;701;52.526;13.408;2022-10-22T14:23:45;19.60;25.70
1413;DHT22;701;52.526;13.408;2022-10-22T14:26:30;19.60;25.80
1413;DHT22;701;52.526;13.408;2022-10-22T14:28:58;19.60;25.80
1413;DHT22;701;52.526;13.408;2022-10-22T14:31:25;19.50;25.90
1413;DHT22;701;52.526;13.408;2022-10-22T14:33:51;19.50;26.10
1413;DHT22;701;52.526;13.408;2022-10-22T14:36:17;19.40;26.20
1413;DHT22;701;52.526;13.408;2022-10-22T14:38:45;19.40;26.40
1413;DHT22;701;52.526;13.408;2022-10-22T14:41:20;19.40;26.50
1413;DHT22;701;52.526;13.408;2022-10-22T14:43:46;19.30;26.70
1413;DHT22;701;52.526;13.408;2022-10-22T14:46:13;19.30;26.70
1413;DHT22;701;52.526;13.408;2022-10-22T14:48:39;19.20;26.60
1413;DHT22;701;52.526;13.408;2022-10-22T14:51:06;19.10;26.60
1413;DHT22;701;52.526;13.408;2022-10-22T14:53:32;19.10;26.60
1413;DHT22;701;52.526;13.408;2022-10-22T14:55:57;19.00;26.90
1413;DHT22;701;52.526;13.408;2022-10-22T14:58:24;18.90;27.10
1413;DHT22;701;52.526;13.408;2022-10-22T15:00:51;18.90;27.30
1413;DHT22;701;52.526;13.408;2022-10-22T15:03:17;18.80;27.40
1413;DHT22;701;52.526;13.408;2022-10-22T15:05:43;18.80;27.60
1413;DHT22;701;52.526;13.408;2022-10-22T15:08:10;18.70;27.70
1413;DHT22;701;52.526;13.408;2022-10-22T15:10:35;18.70;27.90
1413;DHT22;701;52.526;13.408;2022-10-22T15:13:01;18.60;28.00
1413;DHT22;701;52.526;13.408;2022-10-22T15:15:27;18.50;28.10
1413;DHT22;701;52.526;13.408;2022-10-22T15:17:52;18.50;28.40
1413;DHT22;701;52.526;13.408;2022-10-22T15:20:18;18.40;28.50
1413;DHT22;701;52.526;13.408;2022-10-22T15:22:44;18.40;28.70
1413;DHT22;701;52.526;13.408;2022-10-22T15:25:10;18.30;28.90
1413;DHT22;701;52.526;13.408;2022-10-22T15:27:37;18.20;29.10
1413;DHT22;701;52.526;13.408;2022-10-22T15:30:04;18.10;29.50
1413;DHT22;701;52.526;13.408;2022-10-22T15:32:29;18.00;29.40
1413;DHT22;701;52.526;13.408;2022-10-22T15:34:58;18.00;29.40
1413;DHT22;701;52.526;13.408;2022-10-22T15:37:24;17.90;29.60
1413;DHT22;701;52.526;13.408;2022-10-22T15:39:50;17.80;29.90
1413;DHT22;701;52.526;13.408;2022-10-22T15:42:16;17.70;30.00
1413;DHT22;701;52.526;13.408;2022-10-22T15:44:43;17.70;30.30
1413;DHT22;701;52.526;13.408;2022-10-22T15:47:09;17.60;30.70
1413;DHT22;701;52.526;13.408;2022-10-22T15:49:37;17.50;30.80
1413;DHT22;701;52.526;13.408;2022-10-22T15:52:04;17.50;31.10
1413;DHT22;701;52.526;13.408;2022-10-22T15:54:31;17.40;31.40
1413;DHT22;701;52.526;13.408;2022-10-22T15:56:58;17.30;31.70
1413;DHT22;701;52.526;13.408;2022-10-22T15:59:24;17.30;31.90
1413;DHT22;701;52.526;13.408;2022-10-22T16:01:50;17.20;32.10
1413;DHT22;701;52.526;13.408;2022-10-22T16:04:16;17.10;32.30
1413;DHT22;701;52.526;13.408;2022-10-22T16:06:46;17.00;32.70
1413;DHT22;701;52.526;13.408;2022-10-22T16:09:15;17.00;33.50
1413;DHT22;701;52.526;13.408;2022-10-22T16:11:41;16.90;32.80
1413;DHT22;701;52.526;13.408;2022-10-22T16:14:09;16.80;33.20
1413;DHT22;701;52.526;13.408;2022-10-22T16:16:36;16.70;33.40
1413;DHT22;701;52.526;13.408;2022-10-22T16:19:04;16.70;33.50
1413;DHT22;701;52.526;13.408;2022-10-22T16:21:30;16.60;33.80
1413;DHT22;701;52.526;13.408;2022-10-22T16:23:56;16.60;34.10
1413;DHT22;701;52.526;13.408;2022-10-22T16:26:22;16.50;34.30
1413;DHT22;701;52.526;13.408;2022-10-22T16:28:47;16.50;34.80
1413;DHT22;701;52.526;13.408;2022-10-22T16:31:16;16.40;36.00
1413;DHT22;701;52.526;13.408;2022-10-22T16:33:43;16.40;35.80
1413;DHT22;701;52.526;13.408;2022-10-22T16:36:09;16.40;35.50
1413;DHT22;701;52.526;13.408;2022-10-22T16:38:35;16.30;35.80
1413;DHT22;701;52.526;13.408;2022-10-22T16:43:33;16.30;36.60
1413;DHT22;701;52.526;13.408;2022-10-22T16:45:59;16.30;36.70
1413;DHT22;701;52.526;13.408;2022-10-22T16:48:24;16.20;37.30
1413;DHT22;701;52.526;13.408;2022-10-22T16:50:50;16.20;36.60
1413;DHT22;701;52.526;13.408;2022-10-22T16:53:16;16.20;36.60
1413;DHT22;701;52.526;13.408;2022-10-22T16:55:42;16.10;36.70
1413;DHT22;701;52.526;13.408;2022-10-22T16:58:08;16.10;37.10
1413;DHT22;701;52.526;13.408;2022-10-22T17:00:34;16.10;37.20
1413;DHT22;701;52.526;13.408;2022-10-22T17:03:00;16.00;37.50
1413;DHT22;701;52.526;13.408;2022-10-22T17:05:25;16.00;37.80
1413;DHT22;701;52.526;13.408;2022-10-22T17:07:51;16.00;38.10
1413;DHT22;701;52.526;13.408;2022-10-22T17:10:17;15.90;38.10
1413;DHT22;701;52.526;13.408;2022-10-22T17:12:47;15.90;38.30
1413;DHT22;701;52.526;13.408;2022-10-22T17:15:13;15.90;38.90
1413;DHT22;701;52.526;13.408;2022-10-22T17:17:39;15.90;39.20
1413;DHT22;701;52.526;13.408;2022-10-22T17:20:06;15.90;39.70
1413;DHT22;701;52.526;13.408;2022-10-22T17:22:31;15.90;40.10
1413;DHT22;701;52.526;13.408;2022-10-22T17:25:15;16.00;40.50
1413;DHT22;701;52.526;13.408;2022-10-22T17:27:43;16.10;40.90
1413;DHT22;701;52.526;13.408;2022-10-22T17:30:16;16.20;40.30
1413;DHT22;701;52.526;13.408;2022-10-22T17:32:42;16.20;40.10
1413;DHT22;701;52.526;13.408;2022-10-22T17:35:08;16.30;40.10
1413;DHT22;701;52.526;13.408;2022-10-22T17:37:34;16.30;39.80
1413;DHT22;701;52.526;13.408;2022-10-22T17:40:01;16.30;39.80
1413;DHT22;701;52.526;13.408;2022-10-22T17:42:27;16.30;39.80
1413;DHT22;701;52.526;13.408;2022-10-22T17:44:53;16.30;39.70
1413;DHT22;701;52.526;13.408;2022-10-22T17:47:19;16.30;39.90
1413;DHT22;701;52.526;13.408;2022-10-22T17:49:45;16.20;39.80
1413;DHT22;701;52.526;13.408;2022-10-22T17:52:12;16.20;39.80
1413;DHT22;701;52.526;13.408;2022-10-22T17:54:38;16.20;40.00
1413;DHT22;701;52.526;13.408;2022-10-22T17:57:04;16.10;39.90
1413;DHT22;701;52.526;13.408;2022-10-22T17:59:31;16.10;39.90
1413;DHT22;701;52.526;13.408;2022-10-22T18:01:57;16.10;40.60
1413;DHT22;701;52.526;13.408;2022-10-22T18:04:27;16.10;40.80
1413;DHT22;701;52.526;13.408;2022-10-22T18:06:53;16.00;40.80